Impacts TAF Board
For situational awareness. Not to be used for flight planning purposes.
IDs:

KBFM - Mobile/Downtown Arpt, AL, US

Issued at 1733 UTC 02 Oct 2022
Updated at 2309 UTC 02 Oct 2022
Potential Impact None Slight Moderate High
Time2253Z 03/00Z 03/01Z 03/02Z 03/03Z 03/04Z 03/05Z 03/06Z 03/07Z 03/08Z 03/09Z 03/10Z 03/11Z 03/12Z>>
Type OBS PRVL PRVL PRVL PRVL PRVL PRVL PRVL PRVL PRVL PRVL PRVL PRVL PRVL
VIS 10 >6 >6 >6 >6 >6 >6 >6 >6 >6 >6 >6 >6 >6
CIG -- -- -- -- -- -- -- -- -- -- -- -- -- --
Cover CLR SKC SKC SKC SKC SKC SKC SKC SKC SKC SKC SKC SKC SKC
FltCat VFR VFR VFR VFR VFR VFR VFR VFR VFR VFR VFR VFR VFR VFR
WX -- -- -- -- -- -- -- -- -- -- -- -- -- --
WDir 320 340 340 340 340 340 340 340 340 340 340 340 340 340
WSpd 10 8 8 8 8 8 8 8 8 8 8 8 8 8
WGst -- -- -- -- -- -- -- -- -- -- -- -- -- --
WSHgt -- -- -- -- -- -- -- -- -- -- -- -- -- --
WSDir -- -- -- -- -- -- -- -- -- -- -- -- -- --
WSSpd -- -- -- -- -- -- -- -- -- -- -- -- -- --
Raw TAF
KBFM 021733Z 0218/0318 01008KT P6SM SKC
  FM022100 34008KT P6SM SKC


Raw METAR
KBFM 022253Z 32010KT 10SM CLR 28/06 A2999 RMK AO2 SLP156 T02780061
KBFM 022153Z 31010KT 10SM CLR 30/04 A2999 RMK AO2 SLP155 T03000039
KBFM 022053Z 31011KT 10SM CLR 31/03 A2999 RMK AO2 SLP156 T03110033 56019

METAR Board
Radar Display
Forecast Discussion
For situational awareness. Not to be used for flight planning purposes.